Messwerte St. George

Temperatur

Temperatur
°C
1594512000 16.00 16.00 9
1594515600 17.00 17.00 9
1594519200 18.00 18.00 9
1594522800 19.00 19.00 9
1594526400 20.00 20.00 9
1594530000 21.00 21.00
1594533600 22.00 22.00 8
1594537200 23.00 23.00 8
1594540800 0.00 0.00 8
1594544400 1.00 1.00 8
1594548000 2.00 2.00 8
1594551600 3.00 3.00 8
1594555200 4.00 4.00 8
1594558800 5.00 5.00 7
1594562400 6.00 6.00 7
1594566000 7.00 7.00 7
1594569600 8.00 8.00
1594573200 9.00 9.00 7
1594576800 10.00 10.00 8
1594580400 11.00 11.00 8
1594584000 12.00 12.00 9
1594587600 13.00 13.00 10
1594591200 14.00 14.00 10
1594594800 15.00 15.00 10

Aktuellste Messwerte

Wettercharakter
Wetter: wechselnd bewölkt
Temperatur
10 °C
Feuchtigkeit
80 %
Wind
20 km/hWindrichtung: Nordost
Luftdruck
1010 hPa
Messzeit: 12. Juli 2020, 16.00Datenquelle: METAR

Weitere Messstationen in der Nähe

Messstation Temperatur Entfernung
St.Paul 13 °C 72 km
Unalaska 11 °C 358 km
Cold Bay 14 °C 460 km
King Cove 13 °C 488 km

Wind

Windrichtung Böen Mittelwind
° km/h km/h
1594512000 16.00 15.00 - 16.00 40° 20
1594515600 17.00 16.00 - 17.00 40° 25
1594519200 18.00 17.00 - 18.00 30° 20
1594522800 19.00 18.00 - 19.00 40° 20
1594526400 20.00 19.00 - 20.00 30° 25
1594530000 21.00 20.00 - 21.00
1594533600 22.00 21.00 - 22.00 40° 20
1594537200 23.00 22.00 - 23.00 40° 20
1594540800 0.00 23.00 - 0.00 50° 15
1594544400 1.00 0.00 - 1.00 40° 15
1594548000 2.00 1.00 - 2.00 50° 20
1594551600 3.00 2.00 - 3.00 50° 10
1594555200 4.00 3.00 - 4.00 40° 15
1594558800 5.00 4.00 - 5.00 10° 15
1594562400 6.00 5.00 - 6.00 30° 10
1594566000 7.00 6.00 - 7.00 20° 10
1594569600 8.00 7.00 - 8.00
1594573200 9.00 8.00 - 9.00 260° 10
1594576800 10.00 9.00 - 10.00 30° 10
1594580400 11.00 10.00 - 11.00 240° 10
1594584000 12.00 11.00 - 12.00 260° 10
1594587600 13.00 12.00 - 13.00 250° 10
1594591200 14.00 13.00 - 14.00 20° 20
1594594800 15.00 14.00 - 15.00 20° 20

Ihre Wetterstation

Fehlt Ihre Wetterstation auf unserem Portal?

Schreiben Sie an network@meteonews.ch

Klima

Wann ist es am wärmsten? Wann regnet es am wenigsten? Unsere Klimadaten geben Auskunft.